首页
METAR-TAF:

METAR-TAF

机场 :

多哈国际机场

多哈, 卡塔尔

纬度: 25-15-40N, 经度: 051-33-54E, 海拔: 11米

当前天气观测

该预报发布于2小时和41分钟前的06:30 UTC
风速5节,风向
温度 34°C
湿度 44%
气压 1015 hPa
能見度: 7000

METAR: OTBD 170630Z 36005KT 7000 NSC 34/20 Q1015 NOSIG

时间: 12:11 (09:11 UTC)

预报

该预报发布于4小时和9分钟前的05:02 UTC
预报有效从17日的 06点(UTC)到 18日的 12点(UTC)
风速4节,风向
能見度: 7000
成为
从 17日的 08点(UTC)到 17日的 10点(UTC)
风速8节,风向东转东北
成为
从 17日的 20点(UTC)到 17日的 22点(UTC)
风速2节,风向多变
几率 30% :
短暂存在
从 17日的 21点(UTC)到 18日的 04点(UTC)
能見度: 4000
成为
从 18日的 07点(UTC)到 18日的 09点(UTC)
风速7节,风向东北

TAF: OTBD 170502Z 1706/1812 35004KT 7000 NSC BECMG 1708/1710 06008KT BECMG 1720/1722 VRB02KT PROB30 TEMPO 1721/1804 4000 HZ BECMG 1807/1809 05007KT

超过4000个机场的气象观测和天气预报(METAR&TAF报告)。

可查询的气象台以黄色和红色小点在地图上表示。

将鼠标移到小点上方,可查看气象台名称。

然后点击查看天气观测和预报。

如需切换地图:点击带黑十字的绿色按钮放大地图;点击带横线的绿色按钮缩小地图;或者点击绿色箭头查看邻近地区的地图。


METAR-TAF: